createdAt,value
2023-07-03T00:00:44.360Z,39.35
2023-07-03T00:01:44.415Z,39.34
2023-07-03T00:02:44.467Z,39.36
2023-07-03T00:03:44.452Z,39.34
2023-07-03T00:04:44.581Z,39.34
2023-07-03T00:05:44.499Z,39.34
2023-07-03T00:06:44.474Z,39.33
2023-07-03T00:07:44.509Z,39.36
2023-07-03T00:08:44.515Z,39.34
2023-07-03T00:09:44.566Z,39.35
2023-07-03T00:10:44.594Z,39.34
2023-07-03T00:11:44.615Z,39.33
2023-07-03T00:12:44.647Z,39.34
2023-07-03T00:13:44.723Z,39.33
2023-07-03T00:14:44.704Z,39.33
2023-07-03T00:15:44.677Z,39.30
2023-07-03T00:16:44.772Z,39.32
2023-07-03T00:17:44.826Z,39.32
2023-07-03T00:18:44.774Z,39.31
2023-07-03T00:19:44.804Z,39.31
2023-07-03T00:20:44.809Z,39.32
2023-07-03T00:21:45.071Z,39.32
2023-07-03T00:22:44.886Z,39.32
2023-07-03T00:23:44.897Z,39.33
2023-07-03T00:24:44.911Z,39.33
2023-07-03T00:25:44.949Z,39.34
2023-07-03T00:26:44.993Z,39.33
2023-07-03T00:27:45.023Z,39.30
2023-07-03T00:28:45.031Z,39.32
2023-07-03T00:29:45.087Z,39.32
2023-07-03T00:30:45.081Z,39.31
2023-07-03T00:31:45.172Z,39.31
2023-07-03T00:32:45.209Z,39.31
2023-07-03T00:33:45.199Z,39.33
2023-07-03T00:34:45.254Z,39.30
2023-07-03T00:35:45.287Z,39.31
2023-07-03T00:36:45.269Z,39.31
2023-07-03T00:37:45.291Z,39.30
2023-07-03T00:38:45.351Z,39.31
2023-07-03T00:39:45.367Z,39.31
2023-07-03T00:40:45.398Z,39.32
2023-07-03T00:41:45.426Z,39.31
2023-07-03T00:42:45.465Z,39.30
2023-07-03T00:43:45.483Z,39.31
2023-07-03T00:44:45.510Z,39.28
2023-07-03T00:45:45.562Z,39.30
2023-07-03T00:46:45.665Z,39.30
2023-07-03T00:47:45.629Z,39.26
2023-07-03T00:48:45.626Z,39.28
2023-07-03T00:49:45.653Z,39.27
2023-07-03T00:50:45.652Z,39.25
2023-07-03T00:51:45.722Z,39.27
2023-07-03T00:52:45.701Z,39.27
2023-07-03T00:53:45.707Z,39.25
2023-07-03T00:54:45.726Z,39.27
2023-07-03T00:55:45.774Z,39.28
2023-07-03T00:56:45.788Z,39.24
2023-07-03T00:57:45.795Z,39.23
2023-07-03T00:58:45.786Z,39.22
2023-07-03T00:59:45.820Z,39.21
2023-07-03T01:00:45.861Z,39.22
2023-07-03T01:01:45.956Z,39.23
2023-07-03T01:02:45.905Z,39.21
2023-07-03T01:03:45.932Z,39.22
2023-07-03T01:04:45.982Z,39.21
2023-07-03T01:05:46.025Z,39.20
2023-07-03T01:06:46.026Z,39.19
2023-07-03T01:07:46.033Z,39.18
2023-07-03T01:08:46.067Z,39.18
2023-07-03T01:09:46.082Z,39.20
2023-07-03T01:10:46.137Z,39.17
2023-07-03T01:11:46.143Z,39.20
2023-07-03T01:12:46.190Z,39.21
2023-07-03T01:13:46.202Z,39.16
2023-07-03T01:14:46.280Z,39.16
2023-07-03T01:15:46.300Z,39.16
2023-07-03T01:16:46.292Z,39.17
2023-07-03T01:17:46.372Z,39.16
2023-07-03T01:18:46.365Z,39.14
2023-07-03T01:19:46.402Z,39.15
2023-07-03T01:20:46.418Z,39.15
2023-07-03T01:21:46.468Z,39.16
2023-07-03T01:22:46.483Z,39.15
2023-07-03T01:23:46.531Z,39.15
2023-07-03T01:24:46.595Z,39.16
2023-07-03T01:25:46.599Z,39.16
2023-07-03T01:26:46.671Z,39.16
2023-07-03T01:27:46.721Z,39.16
2023-07-03T01:28:46.734Z,39.16
2023-07-03T01:29:46.739Z,39.17
2023-07-03T01:30:46.764Z,39.17
2023-07-03T01:31:46.857Z,39.16
2023-07-03T01:32:46.870Z,39.17
2023-07-03T01:33:46.867Z,39.16
2023-07-03T01:34:46.994Z,39.20
2023-07-03T01:35:46.930Z,39.13
2023-07-03T01:36:46.993Z,39.16
2023-07-03T01:37:46.988Z,39.13
2023-07-03T01:38:47.061Z,39.15
2023-07-03T01:39:47.048Z,39.18
2023-07-03T01:40:47.116Z,39.17
2023-07-03T01:41:47.125Z,39.18
2023-07-03T01:42:47.183Z,39.16
2023-07-03T01:43:47.212Z,39.14
2023-07-03T01:44:47.246Z,39.16
2023-07-03T01:45:47.351Z,39.15
2023-07-03T01:46:47.329Z,39.15
2023-07-03T01:47:47.470Z,39.15
2023-07-03T01:48:47.435Z,39.16
2023-07-03T01:49:47.435Z,39.17
2023-07-03T01:50:47.453Z,39.14
2023-07-03T01:51:47.558Z,39.13
2023-07-03T01:52:47.542Z,39.13
2023-07-03T01:53:47.591Z,39.14
2023-07-03T01:54:47.636Z,39.14
2023-07-03T01:55:47.777Z,39.13
2023-07-03T01:56:47.709Z,39.14
2023-07-03T01:57:47.762Z,39.14
2023-07-03T01:58:47.807Z,39.15
2023-07-03T01:59:47.873Z,39.14
2023-07-03T02:00:47.934Z,39.13
2023-07-03T02:01:48.015Z,39.12
2023-07-03T02:02:48.180Z,39.11
2023-07-03T02:03:48.004Z,39.15
2023-07-03T02:04:48.092Z,39.14
2023-07-03T02:05:48.419Z,39.13
2023-07-03T02:06:48.124Z,39.11
2023-07-03T02:07:48.191Z,39.14
2023-07-03T02:08:48.215Z,39.13
2023-07-03T02:09:48.258Z,39.13
2023-07-03T02:10:48.307Z,39.11
2023-07-03T02:11:48.356Z,39.13
2023-07-03T02:12:48.385Z,39.13
2023-07-03T02:13:48.437Z,39.13
2023-07-03T02:14:48.460Z,39.12
2023-07-03T02:15:48.580Z,39.11
2023-07-03T02:16:48.689Z,39.12
2023-07-03T02:17:48.614Z,39.11
2023-07-03T02:18:48.619Z,39.12
2023-07-03T02:19:48.676Z,39.12
2023-07-03T02:20:48.731Z,39.12
2023-07-03T02:21:48.773Z,39.13
2023-07-03T02:22:48.790Z,39.14
2023-07-03T02:23:48.883Z,39.12
2023-07-03T02:24:48.866Z,39.12
2023-07-03T02:25:49.130Z,39.11
2023-07-03T02:26:49.292Z,39.11
2023-07-03T02:27:48.980Z,39.08
2023-07-03T02:28:49.029Z,39.11
2023-07-03T02:29:49.087Z,39.10
2023-07-03T02:30:49.121Z,39.13
2023-07-03T02:31:49.344Z,39.12
2023-07-03T02:32:49.241Z,39.11
2023-07-03T02:33:49.208Z,39.13
2023-07-03T02:34:49.251Z,39.10
2023-07-03T02:35:49.796Z,39.10
2023-07-03T02:36:49.355Z,39.10
2023-07-03T02:37:49.407Z,39.10
2023-07-03T02:38:49.431Z,39.10
2023-07-03T02:39:49.525Z,39.07
2023-07-03T02:40:49.548Z,39.09
2023-07-03T02:41:49.570Z,39.08
2023-07-03T02:42:49.670Z,39.09
2023-07-03T02:43:49.682Z,39.09
2023-07-03T02:44:49.722Z,39.07
2023-07-03T02:45:50.021Z,39.08
2023-07-03T02:46:49.864Z,39.09
2023-07-03T02:47:49.908Z,39.08
2023-07-03T02:48:49.912Z,39.06
2023-07-03T02:49:50.012Z,39.05
2023-07-03T02:50:49.997Z,39.06
2023-07-03T02:51:50.091Z,39.05
2023-07-03T02:52:50.133Z,39.03
2023-07-03T02:53:50.178Z,39.05
2023-07-03T02:54:50.202Z,39.04
2023-07-03T02:55:50.634Z,39.03
2023-07-03T02:56:50.327Z,39.04
2023-07-03T02:57:50.336Z,39.06
2023-07-03T02:58:50.416Z,39.03
2023-07-03T02:59:50.430Z,39.04
2023-07-03T03:00:50.512Z,39.03
2023-07-03T03:01:50.538Z,39.03
2023-07-03T03:02:50.672Z,39.02
2023-07-03T03:03:50.653Z,39.01
2023-07-03T03:04:50.703Z,39.01
2023-07-03T03:05:50.968Z,39.03
2023-07-03T03:06:50.758Z,38.99
2023-07-03T03:07:50.806Z,38.96
2023-07-03T03:08:50.882Z,38.97
2023-07-03T03:09:50.884Z,38.97
2023-07-03T03:10:50.923Z,38.96
2023-07-03T03:11:51.002Z,38.96
2023-07-03T03:12:51.001Z,38.93
2023-07-03T03:13:51.064Z,38.94
2023-07-03T03:14:51.085Z,38.93
2023-07-03T03:15:51.408Z,38.93
2023-07-03T03:16:51.211Z,38.92
2023-07-03T03:17:51.227Z,38.93
2023-07-03T03:18:51.236Z,38.92
2023-07-03T03:19:51.294Z,38.89
2023-07-03T03:20:51.368Z,38.90
2023-07-03T03:21:51.367Z,38.90
2023-07-03T03:22:51.476Z,38.88
2023-07-03T03:23:51.502Z,38.85
2023-07-03T03:24:51.533Z,38.85
2023-07-03T03:25:51.826Z,38.85
2023-07-03T03:26:51.672Z,38.85
2023-07-03T03:27:51.689Z,38.83
2023-07-03T03:28:51.750Z,38.84
2023-07-03T03:29:51.921Z,38.82
2023-07-03T03:30:51.911Z,38.81
2023-07-03T03:31:51.903Z,38.82
2023-07-03T03:32:51.962Z,38.81
2023-07-03T03:33:52.000Z,38.78
2023-07-03T03:34:52.089Z,38.80
2023-07-03T03:35:52.460Z,38.77
2023-07-03T03:36:52.157Z,38.79
2023-07-03T03:37:52.190Z,38.79
2023-07-03T03:38:52.232Z,38.79
2023-07-03T03:39:52.300Z,38.77
2023-07-03T03:40:52.413Z,38.75
2023-07-03T03:41:52.439Z,38.75
2023-07-03T03:42:52.489Z,38.73
2023-07-03T03:43:52.559Z,38.74
2023-07-03T03:44:52.639Z,38.75
2023-07-03T03:45:52.789Z,38.71
2023-07-03T03:46:52.697Z,38.71
2023-07-03T03:47:52.911Z,38.73
2023-07-03T03:48:52.899Z,38.74
2023-07-03T03:49:52.881Z,38.70
2023-07-03T03:50:52.931Z,38.71
2023-07-03T03:51:53.005Z,38.70
2023-07-03T03:52:53.048Z,38.72
2023-07-03T03:53:53.040Z,38.73
2023-07-03T03:54:53.112Z,38.72
2023-07-03T03:55:53.392Z,38.72
2023-07-03T03:56:53.230Z,38.72
2023-07-03T03:57:53.278Z,38.70
2023-07-03T03:58:53.327Z,38.70
2023-07-03T03:59:53.368Z,38.70
2023-07-03T04:00:53.491Z,38.69
2023-07-03T04:01:53.613Z,38.70
2023-07-03T04:02:53.621Z,38.69
2023-07-03T04:03:53.663Z,38.68
2023-07-03T04:04:53.710Z,38.69
2023-07-03T04:05:54.097Z,38.68
2023-07-03T04:06:53.783Z,38.69
2023-07-03T04:07:53.797Z,38.66
2023-07-03T04:08:53.881Z,38.66
2023-07-03T04:09:53.887Z,38.65
2023-07-03T04:10:53.933Z,38.65
2023-07-03T04:11:53.988Z,38.66
2023-07-03T04:12:54.058Z,38.66
2023-07-03T04:13:54.130Z,38.64
2023-07-03T04:14:54.128Z,38.63
2023-07-03T04:15:55.083Z,38.63
2023-07-03T04:16:54.481Z,38.62
2023-07-03T04:17:54.305Z,38.63
2023-07-03T04:18:54.336Z,38.62
2023-07-03T04:19:54.376Z,38.61
2023-07-03T04:20:54.460Z,38.58
2023-07-03T04:21:54.863Z,38.58
2023-07-03T04:22:54.488Z,38.57
2023-07-03T04:23:54.573Z,38.56
2023-07-03T04:24:54.665Z,38.55
2023-07-03T04:25:54.708Z,38.56
2023-07-03T04:26:54.761Z,38.58
2023-07-03T04:27:54.772Z,38.59
2023-07-03T04:28:54.816Z,38.54
2023-07-03T04:29:54.877Z,38.53
2023-07-03T04:30:54.935Z,38.54
2023-07-03T04:31:55.035Z,38.54
2023-07-03T04:32:55.154Z,38.53
2023-07-03T04:33:55.078Z,38.55
2023-07-03T04:34:55.153Z,38.51
2023-07-03T04:35:55.234Z,38.50
2023-07-03T04:36:55.256Z,38.51
2023-07-03T04:37:55.316Z,38.50
2023-07-03T04:38:55.370Z,38.52
2023-07-03T04:39:55.398Z,38.49
2023-07-03T04:40:55.465Z,38.51
2023-07-03T04:41:55.484Z,38.49
2023-07-03T04:42:55.527Z,38.51
2023-07-03T04:43:55.600Z,38.48
2023-07-03T04:44:55.647Z,39.07
2023-07-03T04:45:56.040Z,40.05
2023-07-03T04:46:55.777Z,38.83
2023-07-03T04:47:55.804Z,38.87
2023-07-03T04:48:55.886Z,39.07
2023-07-03T04:49:55.898Z,39.34
2023-07-03T04:50:56.020Z,39.31
2023-07-03T04:51:56.372Z,39.48
2023-07-03T04:52:59.010Z,39.46
2023-07-03T04:53:56.068Z,39.35
2023-07-03T04:54:56.052Z,39.38
2023-07-03T04:55:56.074Z,39.45
2023-07-03T04:56:56.049Z,39.48
2023-07-03T04:57:56.053Z,39.52
2023-07-03T04:58:56.036Z,39.46
2023-07-03T04:59:56.040Z,41.41
2023-07-03T05:00:56.071Z,43.65
2023-07-03T05:01:56.104Z,42.97
2023-07-03T05:02:56.031Z,42.90
2023-07-03T05:03:56.067Z,42.55
2023-07-03T05:04:56.038Z,42.79
2023-07-03T05:05:56.009Z,44.07
2023-07-03T05:06:55.978Z,44.08
2023-07-03T05:07:58.776Z,44.00
2023-07-03T05:08:55.946Z,43.57
2023-07-03T05:09:55.935Z,43.32
2023-07-03T05:10:55.943Z,43.28
2023-07-03T05:11:56.419Z,43.05
2023-07-03T05:12:55.946Z,42.78
2023-07-03T05:13:55.938Z,42.77
2023-07-03T05:14:55.929Z,42.81
2023-07-03T05:15:55.939Z,42.68
2023-07-03T05:16:56.401Z,42.51
2023-07-03T05:17:56.004Z,42.52
2023-07-03T05:18:55.922Z,42.34
2023-07-03T05:19:55.872Z,42.32
2023-07-03T05:20:55.941Z,42.23
2023-07-03T05:21:56.393Z,42.07
2023-07-03T05:22:55.887Z,41.97
2023-07-03T05:23:55.852Z,41.94
2023-07-03T05:24:55.858Z,41.88
2023-07-03T05:25:55.903Z,41.67
2023-07-03T05:26:55.925Z,41.66
2023-07-03T05:27:55.838Z,41.59
2023-07-03T05:28:55.821Z,41.51
2023-07-03T05:29:55.837Z,41.43
2023-07-03T05:30:55.862Z,41.36
2023-07-03T05:31:55.854Z,41.23
2023-07-03T05:32:55.896Z,41.20
2023-07-03T05:33:55.800Z,41.13
2023-07-03T05:34:55.815Z,41.11
2023-07-03T05:35:55.957Z,41.02
2023-07-03T05:36:55.778Z,41.02
2023-07-03T05:37:55.798Z,40.96
2023-07-03T05:38:55.731Z,40.86
2023-07-03T05:39:55.736Z,40.88
2023-07-03T05:40:55.740Z,40.78
2023-07-03T05:41:55.766Z,40.75
2023-07-03T05:42:55.734Z,40.68
2023-07-03T05:43:55.732Z,40.64
2023-07-03T05:44:55.736Z,40.62
2023-07-03T05:45:55.728Z,40.59
2023-07-03T05:46:55.795Z,40.54
2023-07-03T05:47:55.726Z,40.52
2023-07-03T05:48:55.680Z,40.52
2023-07-03T05:49:55.779Z,40.48
2023-07-03T05:50:55.775Z,40.42
2023-07-03T05:51:55.906Z,40.40
2023-07-03T05:52:55.880Z,40.50
2023-07-03T05:53:55.981Z,40.54
2023-07-03T05:54:56.007Z,40.56
2023-07-03T05:55:56.063Z,40.64
2023-07-03T05:56:56.175Z,40.63
2023-07-03T05:57:56.165Z,40.64
2023-07-03T05:58:56.286Z,40.64
2023-07-03T05:59:56.329Z,40.66
2023-07-03T06:00:56.400Z,40.65
2023-07-03T06:01:56.472Z,40.62
2023-07-03T06:02:56.490Z,40.60
2023-07-03T06:03:56.542Z,40.58
2023-07-03T06:04:56.645Z,40.56
2023-07-03T06:05:56.595Z,40.54
2023-07-03T06:06:56.692Z,40.52
2023-07-03T06:07:56.718Z,40.49
2023-07-03T06:08:56.775Z,40.47
2023-07-03T06:09:56.820Z,40.43
2023-07-03T06:10:56.856Z,40.44
2023-07-03T06:11:56.954Z,40.41
2023-07-03T06:12:56.981Z,40.38
2023-07-03T06:13:57.050Z,40.33
2023-07-03T06:14:57.154Z,40.33
2023-07-03T06:15:57.165Z,40.31
2023-07-03T06:16:57.219Z,40.22
2023-07-03T06:17:57.287Z,40.22
2023-07-03T06:18:57.290Z,40.17
2023-07-03T06:19:57.367Z,40.15
2023-07-03T06:20:57.428Z,40.16
2023-07-03T06:21:57.518Z,40.12
2023-07-03T06:22:57.558Z,40.13
2023-07-03T06:23:57.626Z,40.14
2023-07-03T06:24:57.631Z,40.12
2023-07-03T06:25:57.730Z,40.11
2023-07-03T06:26:57.706Z,40.08
2023-07-03T06:27:57.781Z,40.05
2023-07-03T06:28:57.818Z,40.07
2023-07-03T06:29:57.858Z,39.97
2023-07-03T06:30:57.969Z,39.94
2023-07-03T06:31:58.011Z,39.91
2023-07-03T06:32:58.091Z,39.91
2023-07-03T06:33:58.093Z,39.89
2023-07-03T06:34:58.144Z,39.90
2023-07-03T06:35:58.135Z,39.91
2023-07-03T06:36:58.434Z,39.91
2023-07-03T06:37:58.213Z,39.90
2023-07-03T06:38:58.270Z,39.92
2023-07-03T06:39:58.333Z,39.86
2023-07-03T06:40:58.378Z,39.77
2023-07-03T06:41:58.893Z,39.66
2023-07-03T06:42:58.582Z,39.55
2023-07-03T06:43:58.509Z,39.49
2023-07-03T06:44:58.530Z,39.44
2023-07-03T06:45:58.961Z,39.38
2023-07-03T06:46:58.601Z,39.34
2023-07-03T06:47:58.638Z,39.34
2023-07-03T06:48:58.569Z,39.30
2023-07-03T06:49:58.655Z,40.11
2023-07-03T06:50:58.680Z,41.85
2023-07-03T06:51:58.657Z,41.43
2023-07-03T06:52:58.698Z,42.02
2023-07-03T06:53:58.717Z,42.72
2023-07-03T06:54:58.793Z,42.78
2023-07-03T06:55:59.466Z,43.45
2023-07-03T06:56:58.752Z,43.98
2023-07-03T06:57:58.770Z,43.86
2023-07-03T06:58:58.891Z,44.12
2023-07-03T06:59:58.813Z,44.53
2023-07-03T07:00:58.892Z,45.07
2023-07-03T07:01:58.987Z,44.09
2023-07-03T07:02:58.975Z,44.36
2023-07-03T07:03:59.073Z,44.63
2023-07-03T07:05:01.653Z,44.40
2023-07-03T07:05:59.503Z,44.56
2023-07-03T07:06:59.077Z,44.67
2023-07-03T07:07:59.056Z,44.90
2023-07-03T07:08:59.066Z,44.34
2023-07-03T07:09:59.025Z,44.60
2023-07-03T07:10:59.039Z,44.75
2023-07-03T07:11:59.039Z,44.70
2023-07-03T07:12:59.019Z,44.85
2023-07-03T07:13:59.035Z,45.15
2023-07-03T07:15:00.132Z,45.04
2023-07-03T07:15:59.000Z,44.62
2023-07-03T07:16:59.123Z,44.77
2023-07-03T07:17:59.000Z,44.81
2023-07-03T07:18:58.966Z,43.81
2023-07-03T07:19:59.133Z,44.27
2023-07-03T07:20:58.968Z,44.56
2023-07-03T07:21:58.979Z,43.90
2023-07-03T07:22:58.950Z,44.07
2023-07-03T07:23:58.960Z,44.15
2023-07-03T07:24:58.930Z,44.26
2023-07-03T07:25:58.961Z,43.99
2023-07-03T07:26:58.926Z,44.13
2023-07-03T07:27:58.915Z,43.87
2023-07-03T07:28:58.895Z,44.32
2023-07-03T07:29:58.905Z,44.53
2023-07-03T07:30:59.050Z,44.48
2023-07-03T07:31:58.963Z,44.56
2023-07-03T07:32:59.058Z,44.33
2023-07-03T07:33:59.082Z,44.23
2023-07-03T07:34:59.126Z,44.02
2023-07-03T07:35:59.132Z,44.49
2023-07-03T07:36:59.258Z,44.30
2023-07-03T07:37:59.307Z,44.17
2023-07-03T07:38:59.326Z,44.15
2023-07-03T07:39:59.418Z,44.08
2023-07-03T07:40:59.470Z,41.73
2023-07-03T07:41:59.543Z,42.82
2023-07-03T07:42:59.549Z,42.86
2023-07-03T07:43:59.604Z,42.85
2023-07-03T07:44:59.656Z,43.19
2023-07-03T07:45:59.742Z,43.33
2023-07-03T07:46:59.881Z,43.48
2023-07-03T07:47:59.891Z,42.46
2023-07-03T07:48:59.905Z,42.55
2023-07-03T07:49:59.947Z,42.51
2023-07-03T07:50:59.986Z,41.57
2023-07-03T07:52:00.417Z,42.11
2023-07-03T07:53:00.088Z,42.20
2023-07-03T07:54:00.157Z,42.19
2023-07-03T07:55:00.262Z,42.26
2023-07-03T07:56:00.256Z,42.27
2023-07-03T07:57:00.941Z,42.22
2023-07-03T07:58:00.359Z,43.67
2023-07-03T07:59:00.480Z,42.51
2023-07-03T08:00:00.497Z,42.93
2023-07-03T08:01:00.555Z,42.90
2023-07-03T08:02:00.616Z,43.14
2023-07-03T08:03:00.770Z,42.84
2023-07-03T08:04:00.691Z,42.81
2023-07-03T08:05:00.914Z,43.74
2023-07-03T08:06:00.791Z,43.32
2023-07-03T08:07:00.848Z,43.37
2023-07-03T08:08:00.886Z,43.28
2023-07-03T08:09:01.014Z,43.13
2023-07-03T08:10:01.069Z,43.21
2023-07-03T08:11:01.052Z,43.32
2023-07-03T08:12:01.140Z,43.38
2023-07-03T08:13:01.101Z,43.86
2023-07-03T08:14:01.080Z,44.02
2023-07-03T08:15:01.090Z,44.26
2023-07-03T08:16:01.189Z,44.32
2023-07-03T08:17:01.209Z,44.00
2023-07-03T08:18:01.327Z,44.40
2023-07-03T08:19:01.284Z,45.02
2023-07-03T08:20:01.290Z,45.34
2023-07-03T08:21:01.294Z,45.01
2023-07-03T08:22:01.335Z,44.68
2023-07-03T08:23:01.300Z,44.44
2023-07-03T08:24:01.378Z,44.39
2023-07-03T08:25:01.367Z,44.27
2023-07-03T08:26:01.419Z,44.12
2023-07-03T08:27:01.410Z,44.26
2023-07-03T08:28:01.395Z,44.23
2023-07-03T08:29:01.490Z,44.09
2023-07-03T08:30:01.428Z,44.08
2023-07-03T08:31:01.436Z,44.08
2023-07-03T08:32:01.564Z,43.90
2023-07-03T08:33:01.538Z,43.65
2023-07-03T08:34:01.554Z,44.01
2023-07-03T08:38:01.465Z,44.07
2023-07-03T08:39:01.469Z,42.63
2023-07-03T08:40:01.422Z,40.88
2023-07-03T08:41:01.460Z,41.19
2023-07-03T08:42:01.451Z,39.87
2023-07-03T08:43:01.439Z,38.52
2023-07-03T08:44:01.427Z,38.56
2023-07-03T08:45:01.403Z,38.56
2023-07-03T08:46:01.448Z,38.62
2023-07-03T08:47:10.711Z,38.06
2023-07-03T08:48:02.409Z,38.78
2023-07-03T08:49:01.400Z,37.30
2023-07-03T08:50:01.514Z,37.50
2023-07-03T08:51:01.467Z,37.28
2023-07-03T08:52:01.371Z,37.08
2023-07-03T08:53:01.358Z,36.94
2023-07-03T08:54:01.358Z,37.42
2023-07-03T08:55:01.428Z,38.16
2023-07-03T08:56:01.321Z,39.14
2023-07-03T08:57:01.453Z,39.74
2023-07-03T08:58:01.293Z,41.04
2023-07-03T08:59:01.293Z,40.94
2023-07-03T09:00:01.277Z,41.21
2023-07-03T09:01:01.333Z,40.81
2023-07-03T09:02:01.326Z,39.92
2023-07-03T09:03:01.391Z,39.79
2023-07-03T09:04:01.388Z,38.96
2023-07-03T09:05:01.424Z,39.09
2023-07-03T09:06:01.543Z,38.37
2023-07-03T09:07:01.546Z,38.35
2023-07-03T09:08:01.518Z,38.94
2023-07-03T09:09:01.509Z,38.95
2023-07-03T09:10:01.655Z,38.39
2023-07-03T09:11:01.617Z,37.29
2023-07-03T09:12:01.602Z,37.96
2023-07-03T09:13:01.617Z,37.13
2023-07-03T09:14:01.672Z,37.13
2023-07-03T09:15:03.155Z,36.67
2023-07-03T09:16:01.700Z,36.42
2023-07-03T09:17:01.769Z,36.25
2023-07-03T09:18:02.520Z,36.21
2023-07-03T09:19:01.802Z,36.57
2023-07-03T09:20:01.665Z,36.95
2023-07-03T09:21:01.769Z,37.98
2023-07-03T09:22:01.710Z,37.25
2023-07-03T09:23:01.821Z,39.00
2023-07-03T09:24:01.724Z,38.37
2023-07-03T09:25:01.654Z,39.05
2023-07-03T09:26:04.946Z,39.98
2023-07-03T09:27:01.737Z,40.50
2023-07-03T09:28:01.600Z,39.02
2023-07-03T09:29:01.617Z,38.19
2023-07-03T09:30:01.598Z,38.28
2023-07-03T09:31:03.641Z,36.38
2023-07-03T09:32:48.273Z,36.60
2023-07-03T09:33:48.333Z,36.07
2023-07-03T09:34:48.381Z,35.90
2023-07-03T09:35:48.354Z,36.17
2023-07-03T09:36:48.396Z,36.08
2023-07-03T09:37:48.414Z,35.19
2023-07-03T09:38:49.469Z,36.00
2023-07-03T09:39:48.407Z,36.42
2023-07-03T09:40:48.372Z,36.52
2023-07-03T09:41:48.404Z,36.15
2023-07-03T09:42:49.998Z,36.25
2023-07-03T09:43:48.554Z,36.43
2023-07-03T09:44:48.351Z,36.55
2023-07-03T09:45:48.608Z,36.50
2023-07-03T09:46:48.447Z,36.83
2023-07-03T09:47:48.395Z,36.27
2023-07-03T09:48:48.322Z,37.09
2023-07-03T09:49:48.364Z,36.27
2023-07-03T09:51:05.488Z,36.49
2023-07-03T09:51:49.360Z,37.28
2023-07-03T09:52:59.382Z,36.23
2023-07-03T09:53:49.306Z,36.42
2023-07-03T09:54:48.668Z,36.91
2023-07-03T09:55:48.368Z,36.61
2023-07-03T09:56:48.301Z,35.92
2023-07-03T09:57:48.239Z,36.25
2023-07-03T09:58:48.256Z,36.75
2023-07-03T09:59:48.257Z,36.88
2023-07-03T10:00:49.197Z,36.88
2023-07-03T10:03:48.327Z,37.54
2023-07-03T10:06:48.258Z,37.25
2023-07-03T10:07:48.283Z,36.92
2023-07-03T10:08:48.533Z,36.79
2023-07-03T10:11:48.249Z,37.53
2023-07-03T10:12:48.179Z,37.38
2023-07-03T10:13:48.212Z,37.32
2023-07-03T10:14:48.127Z,37.29
2023-07-03T10:15:48.313Z,37.69
2023-07-03T10:16:48.211Z,37.02
2023-07-03T10:17:48.206Z,36.86
2023-07-03T10:18:48.120Z,36.38
2023-07-03T10:19:48.123Z,36.47
2023-07-03T10:20:48.113Z,36.54
2023-07-03T10:21:48.118Z,36.80
2023-07-03T10:22:48.098Z,37.09
2023-07-03T10:23:48.122Z,36.74
2023-07-03T10:24:48.874Z,36.91
2023-07-03T10:25:48.138Z,36.99
2023-07-03T10:26:48.319Z,38.27
2023-07-03T10:27:48.056Z,38.38
2023-07-03T10:28:48.076Z,38.15
2023-07-03T10:29:48.084Z,38.02
2023-07-03T10:30:48.076Z,38.10
2023-07-03T10:31:48.059Z,38.15
2023-07-03T10:32:48.060Z,38.22
2023-07-03T10:33:48.009Z,38.22
2023-07-03T10:34:48.020Z,38.25
2023-07-03T10:35:48.085Z,38.22
2023-07-03T10:36:48.005Z,38.30
2023-07-03T10:37:47.972Z,38.40
2023-07-03T10:38:47.991Z,38.30
2023-07-03T10:39:47.998Z,38.58
2023-07-03T10:40:48.038Z,38.39
2023-07-03T10:41:48.004Z,38.77
2023-07-03T10:42:48.070Z,38.21
2023-07-03T10:43:47.954Z,38.01
2023-07-03T10:44:47.983Z,37.75
2023-07-03T10:45:48.053Z,37.37
2023-07-03T10:46:48.077Z,36.98
2023-07-03T10:47:47.996Z,36.76
2023-07-03T10:48:47.908Z,36.88
2023-07-03T10:49:47.904Z,37.03
2023-07-03T10:50:48.000Z,37.02
2023-07-03T10:51:47.985Z,36.90
2023-07-03T10:52:47.894Z,36.73
2023-07-03T10:53:47.896Z,36.63
2023-07-03T10:54:47.916Z,36.55
2023-07-03T10:55:47.933Z,36.48
2023-07-03T10:56:47.890Z,36.45
2023-07-03T10:57:47.850Z,36.38
2023-07-03T10:58:47.999Z,36.19
2023-07-03T10:59:47.874Z,35.88
2023-07-03T11:00:47.859Z,35.99
2023-07-03T11:01:47.898Z,35.90
2023-07-03T11:02:47.883Z,35.83
2023-07-03T11:03:53.057Z,35.57
2023-07-03T11:04:48.895Z,35.56
2023-07-03T11:05:47.814Z,35.47
2023-07-03T11:06:47.834Z,35.29
2023-07-03T11:07:47.803Z,35.30
2023-07-03T11:08:47.804Z,35.23
2023-07-03T11:09:47.821Z,35.12
2023-07-03T11:10:47.822Z,35.12
2023-07-03T11:11:47.777Z,35.08
2023-07-03T11:12:47.785Z,35.03
2023-07-03T11:13:47.800Z,35.03
2023-07-03T11:14:47.892Z,34.95
2023-07-03T11:15:47.928Z,34.94
2023-07-03T11:16:48.062Z,34.89
2023-07-03T11:22:47.831Z,34.72
2023-07-03T11:23:47.868Z,34.77
2023-07-03T11:24:47.864Z,34.71
2023-07-03T11:28:47.846Z,34.65
2023-07-03T11:29:47.779Z,34.62
2023-07-03T11:30:47.816Z,34.62
2023-07-03T11:31:47.970Z,34.62
2023-07-03T11:32:47.783Z,34.61
2023-07-03T11:36:56.752Z,34.61
2023-07-03T11:39:47.721Z,34.63
2023-07-03T11:40:47.865Z,34.60
2023-07-03T11:43:47.701Z,34.54
2023-07-03T11:44:47.700Z,34.61
2023-07-03T11:45:47.734Z,34.56
2023-07-03T11:46:47.703Z,34.51
2023-07-03T11:47:47.701Z,34.51
2023-07-03T11:48:47.655Z,34.49
2023-07-03T11:49:47.685Z,34.44
2023-07-03T11:50:47.645Z,34.47
2023-07-03T11:51:47.628Z,34.44
2023-07-03T11:52:47.643Z,34.46
2023-07-03T11:53:47.652Z,34.46
2023-07-03T11:54:47.654Z,34.47
2023-07-03T11:55:47.775Z,34.47
2023-07-03T11:56:47.618Z,34.50
2023-07-03T11:57:50.285Z,34.52
2023-07-03T11:58:48.588Z,34.54
2023-07-03T11:59:47.566Z,34.55
2023-07-03T12:00:47.609Z,34.56
2023-07-03T12:01:47.574Z,34.54
2023-07-03T12:02:47.608Z,34.55
2023-07-03T12:03:47.603Z,34.56
2023-07-03T12:04:49.463Z,34.55
2023-07-03T12:05:47.761Z,34.56
2023-07-03T12:06:47.711Z,34.54
2023-07-03T12:07:47.772Z,34.52
2023-07-03T12:08:47.819Z,34.53
2023-07-03T12:09:47.896Z,34.55
2023-07-03T12:10:47.944Z,34.53
2023-07-03T12:11:48.003Z,34.53
2023-07-03T12:12:48.085Z,34.54
2023-07-03T12:13:48.131Z,34.54
2023-07-03T12:14:48.173Z,34.54
2023-07-03T12:15:48.412Z,34.55
2023-07-03T12:16:48.364Z,34.58
2023-07-03T12:17:48.394Z,34.56
2023-07-03T12:18:48.410Z,34.56
2023-07-03T12:19:48.469Z,34.58
2023-07-03T12:20:48.520Z,34.58
2023-07-03T12:21:48.598Z,34.56
2023-07-03T12:22:48.693Z,34.56
2023-07-03T12:23:49.565Z,34.55
2023-07-03T12:24:48.770Z,34.56
2023-07-03T12:25:49.033Z,34.53
2023-07-03T12:26:48.867Z,34.51
2023-07-03T12:27:48.990Z,34.58
2023-07-03T12:28:49.028Z,34.55
2023-07-03T12:29:49.074Z,34.54
2023-07-03T12:30:49.249Z,34.51
2023-07-03T12:31:49.212Z,34.52
2023-07-03T12:32:49.401Z,34.52
2023-07-03T12:33:49.318Z,34.51
2023-07-03T12:34:49.369Z,34.47
2023-07-03T12:35:49.674Z,34.49
2023-07-03T12:36:54.088Z,34.50
2023-07-03T12:37:50.443Z,34.44
2023-07-03T12:38:49.459Z,34.43
2023-07-03T12:39:49.421Z,34.37
2023-07-03T12:40:49.416Z,34.39
2023-07-03T12:41:49.433Z,34.43
2023-07-03T12:42:49.429Z,34.37
2023-07-03T12:43:56.591Z,34.38
2023-07-03T12:44:50.438Z,34.38
2023-07-03T12:45:49.552Z,34.38
2023-07-03T12:46:49.422Z,34.38
2023-07-03T12:47:49.405Z,34.39
2023-07-03T12:48:49.360Z,34.35
2023-07-03T12:49:49.368Z,34.34
2023-07-03T12:50:49.333Z,34.34
2023-07-03T12:51:49.672Z,34.32
2023-07-03T12:52:49.351Z,34.31
2023-07-03T12:53:49.322Z,34.30
2023-07-03T12:54:50.120Z,34.28
2023-07-03T12:55:49.495Z,34.28
2023-07-03T12:56:49.405Z,34.30
2023-07-03T12:57:49.483Z,34.28
2023-07-03T12:58:49.498Z,34.26
2023-07-03T12:59:49.538Z,34.23
2023-07-03T13:00:56.615Z,34.22
2023-07-03T13:01:49.635Z,34.22
2023-07-03T13:02:49.648Z,34.22
2023-07-03T13:03:49.584Z,34.21
2023-07-03T13:04:49.656Z,34.24
2023-07-03T13:05:49.840Z,34.18
2023-07-03T13:06:49.568Z,34.17
2023-07-03T13:07:49.574Z,34.15
2023-07-03T13:08:49.586Z,34.11
2023-07-03T13:09:49.578Z,34.16
2023-07-03T13:10:49.540Z,34.17
2023-07-03T13:11:49.547Z,34.18
2023-07-03T13:12:49.502Z,34.13
2023-07-03T13:13:49.562Z,34.14
2023-07-03T13:14:49.512Z,34.10
2023-07-03T13:15:49.771Z,34.11
2023-07-03T13:16:49.563Z,34.10
2023-07-03T13:17:49.517Z,34.07